createdAt,value
2022-08-25T00:01:56.397Z,21.43
2022-08-25T00:04:24.394Z,21.39
2022-08-25T00:06:52.771Z,21.34
2022-08-25T00:09:23.163Z,21.32
2022-08-25T00:11:50.511Z,21.25
2022-08-25T00:14:23.980Z,21.22
2022-08-25T00:16:50.517Z,21.20
2022-08-25T00:19:20.822Z,21.16
2022-08-25T00:21:47.639Z,21.17
2022-08-25T00:24:17.226Z,21.16
2022-08-25T00:26:48.541Z,21.13
2022-08-25T00:29:15.560Z,21.09
2022-08-25T00:31:42.597Z,21.08
2022-08-25T00:34:12.361Z,21.02
2022-08-25T00:36:39.499Z,20.96
2022-08-25T00:39:08.166Z,20.92
2022-08-25T00:41:35.988Z,20.84
2022-08-25T00:44:06.212Z,20.81
2022-08-25T00:46:42.331Z,20.79
2022-08-25T00:49:24.740Z,20.73
2022-08-25T00:52:14.960Z,20.67
2022-08-25T00:54:53.179Z,20.62
2022-08-25T00:57:35.114Z,20.61
2022-08-25T01:00:06.777Z,20.56
2022-08-25T01:02:33.312Z,20.52
2022-08-25T01:04:59.756Z,20.48
2022-08-25T01:07:26.219Z,20.46
2022-08-25T01:09:53.306Z,20.41
2022-08-25T01:12:20.574Z,20.38
2022-08-25T01:14:48.826Z,20.36
2022-08-25T01:17:16.180Z,20.33
2022-08-25T01:19:42.804Z,20.27
2022-08-25T01:22:11.886Z,20.25
2022-08-25T01:24:46.407Z,20.25
2022-08-25T01:27:13.512Z,20.21
2022-08-25T01:29:40.148Z,20.18
2022-08-25T01:32:10.243Z,20.13
2022-08-25T01:34:40.932Z,20.10
2022-08-25T01:37:07.942Z,20.07
2022-08-25T01:39:38.585Z,20.02
2022-08-25T01:42:11.306Z,19.99
2022-08-25T01:44:40.792Z,19.94
2022-08-25T01:47:08.248Z,19.91
2022-08-25T01:49:35.160Z,19.89
2022-08-25T01:52:10.329Z,19.86
2022-08-25T01:54:36.768Z,19.84
2022-08-25T01:57:03.441Z,19.80
2022-08-25T01:59:30.276Z,19.77
2022-08-25T02:01:59.893Z,19.76
2022-08-25T02:04:31.933Z,19.70
2022-08-25T02:07:03.796Z,19.72
2022-08-25T02:09:30.581Z,19.64
2022-08-25T02:11:57.259Z,19.61
2022-08-25T02:14:23.844Z,19.59
2022-08-25T02:16:52.205Z,19.57
2022-08-25T02:19:20.487Z,19.53
2022-08-25T02:21:47.117Z,19.51
2022-08-25T02:24:14.031Z,19.50
2022-08-25T02:26:42.210Z,19.49
2022-08-25T02:29:09.459Z,19.51
2022-08-25T02:31:36.468Z,19.52
2022-08-25T02:34:03.996Z,19.52
2022-08-25T02:36:32.044Z,19.51
2022-08-25T02:38:58.700Z,19.51
2022-08-25T02:41:31.321Z,19.50
2022-08-25T02:43:58.751Z,19.51
2022-08-25T02:46:25.292Z,19.50
2022-08-25T02:48:53.200Z,19.48
2022-08-25T02:51:28.299Z,19.48
2022-08-25T02:53:54.755Z,19.47
2022-08-25T02:56:21.413Z,19.45
2022-08-25T02:58:48.319Z,19.47
2022-08-25T03:01:16.385Z,19.46
2022-08-25T03:03:45.040Z,19.45
2022-08-25T03:06:14.488Z,19.46
2022-08-25T03:08:42.043Z,19.45
2022-08-25T03:11:08.472Z,19.45
2022-08-25T03:13:35.176Z,19.43
2022-08-25T03:16:04.728Z,19.41
2022-08-25T03:18:31.655Z,19.43
2022-08-25T03:20:58.902Z,19.42
2022-08-25T03:23:25.874Z,19.41
2022-08-25T03:26:13.596Z,19.41
2022-08-25T03:28:41.628Z,19.41
2022-08-25T03:31:09.089Z,19.39
2022-08-25T03:33:36.392Z,19.37
2022-08-25T03:36:03.311Z,19.37
2022-08-25T03:38:29.806Z,19.34
2022-08-25T03:40:56.247Z,19.30
2022-08-25T03:43:22.879Z,19.27
2022-08-25T03:45:49.583Z,19.25
2022-08-25T03:48:17.291Z,19.24
2022-08-25T03:50:51.558Z,19.21
2022-08-25T03:53:19.148Z,19.16
2022-08-25T03:55:45.595Z,19.13
2022-08-25T03:58:12.297Z,19.09
2022-08-25T04:00:39.487Z,19.03
2022-08-25T04:03:06.289Z,18.97
2022-08-25T04:05:32.959Z,18.92
2022-08-25T04:08:01.627Z,18.91
2022-08-25T04:10:29.027Z,18.89
2022-08-25T04:12:56.043Z,18.84
2022-08-25T04:15:22.829Z,18.84
2022-08-25T04:17:51.838Z,18.81
2022-08-25T04:20:19.056Z,18.79
2022-08-25T04:22:45.789Z,18.78
2022-08-25T04:25:12.517Z,18.73
2022-08-25T04:27:39.080Z,18.69
2022-08-25T04:30:06.599Z,18.65
2022-08-25T04:32:35.189Z,18.64
2022-08-25T04:35:01.679Z,18.56
2022-08-25T04:37:28.142Z,18.56
2022-08-25T04:39:54.585Z,18.56
2022-08-25T04:42:21.674Z,18.57
2022-08-25T04:44:48.666Z,18.52
2022-08-25T04:47:15.116Z,18.49
2022-08-25T04:49:41.647Z,18.50
2022-08-25T04:52:13.197Z,18.51
2022-08-25T04:54:41.109Z,18.50
2022-08-25T04:57:07.533Z,18.50
2022-08-25T04:59:34.255Z,18.51
2022-08-25T05:02:05.110Z,18.50
2022-08-25T05:04:33.798Z,18.54
2022-08-25T05:07:00.996Z,18.54
2022-08-25T05:09:28.064Z,18.54
2022-08-25T05:11:54.850Z,18.57
2022-08-25T05:14:26.366Z,18.60
2022-08-25T05:16:54.738Z,18.64
2022-08-25T05:19:21.991Z,18.68
2022-08-25T05:21:48.464Z,18.75
2022-08-25T05:24:14.999Z,18.84
2022-08-25T05:26:43.384Z,18.92
2022-08-25T05:29:10.914Z,18.98
2022-08-25T05:31:42.327Z,19.08
2022-08-25T05:34:11.858Z,19.16
2022-08-25T05:36:43.017Z,19.27
2022-08-25T05:39:10.257Z,19.97
2022-08-25T05:41:37.051Z,21.14
2022-08-25T05:44:03.759Z,22.22
2022-08-25T05:46:31.553Z,23.10
2022-08-25T05:48:58.834Z,23.70
2022-08-25T05:51:26.195Z,23.98
2022-08-25T05:53:52.840Z,23.44
2022-08-25T05:56:20.174Z,22.57
2022-08-25T05:58:47.527Z,22.22
2022-08-25T06:01:43.467Z,23.13
2022-08-25T06:04:12.114Z,23.49
2022-08-25T06:06:39.343Z,23.42
2022-08-25T06:09:08.432Z,23.64
2022-08-25T06:11:37.911Z,24.27
2022-08-25T06:14:04.750Z,24.12
2022-08-25T06:16:31.782Z,23.77
2022-08-25T06:18:58.401Z,23.37
2022-08-25T06:21:25.228Z,22.94
2022-08-25T06:23:51.674Z,22.61
2022-08-25T06:26:21.325Z,22.41
2022-08-25T06:28:49.008Z,22.26
2022-08-25T06:31:15.557Z,22.14
2022-08-25T06:33:42.108Z,22.06
2022-08-25T06:36:08.719Z,22.08
2022-08-25T06:38:35.740Z,22.25
2022-08-25T06:41:04.332Z,22.27
2022-08-25T06:43:33.088Z,22.21
2022-08-25T06:46:11.510Z,22.19
2022-08-25T06:48:38.359Z,22.41
2022-08-25T06:51:07.309Z,22.62
2022-08-25T06:53:34.220Z,22.81
2022-08-25T06:56:05.952Z,22.86
2022-08-25T06:58:33.828Z,22.91
2022-08-25T07:01:19.721Z,23.05
2022-08-25T07:03:48.010Z,23.15
2022-08-25T07:06:15.258Z,23.28
2022-08-25T07:08:46.453Z,23.40
2022-08-25T07:11:17.357Z,23.55
2022-08-25T07:13:45.356Z,23.72
2022-08-25T07:16:12.719Z,23.88
2022-08-25T07:18:39.327Z,24.05
2022-08-25T07:21:08.888Z,24.19
2022-08-25T07:23:36.848Z,24.30
2022-08-25T07:26:36.354Z,24.48
2022-08-25T07:29:12.063Z,24.67
2022-08-25T07:31:39.416Z,24.80
2022-08-25T07:34:26.117Z,24.97
2022-08-25T07:36:54.037Z,24.91
2022-08-25T07:39:21.991Z,24.84
2022-08-25T07:41:52.232Z,24.91
2022-08-25T07:44:21.628Z,25.03
2022-08-25T07:46:50.229Z,25.11
2022-08-25T07:49:18.136Z,25.21
2022-08-25T07:52:05.697Z,25.37
2022-08-25T07:54:35.551Z,25.51
2022-08-25T07:57:04.664Z,25.66
2022-08-25T07:59:39.329Z,25.74
2022-08-25T08:02:09.024Z,25.82
2022-08-25T08:04:46.249Z,25.96
2022-08-25T08:07:12.760Z,26.22
2022-08-25T08:09:39.297Z,26.40
2022-08-25T08:12:06.538Z,26.61
2022-08-25T08:14:32.968Z,26.78
2022-08-25T08:16:59.815Z,26.92
2022-08-25T08:19:26.518Z,27.09
2022-08-25T08:21:54.333Z,27.30
2022-08-25T08:24:40.818Z,27.45
2022-08-25T08:27:11.335Z,27.65
2022-08-25T08:29:39.156Z,27.82
2022-08-25T08:32:09.648Z,27.93
2022-08-25T08:34:36.763Z,28.11
2022-08-25T08:37:03.570Z,28.23
2022-08-25T08:39:30.227Z,28.24
2022-08-25T08:42:17.373Z,28.30
2022-08-25T08:44:46.754Z,28.33
2022-08-25T08:47:31.269Z,28.36
2022-08-25T08:50:04.085Z,28.50
2022-08-25T08:52:43.228Z,28.70
2022-08-25T08:55:39.479Z,28.68
2022-08-25T08:58:13.050Z,28.73
2022-08-25T09:00:52.346Z,28.90
2022-08-25T09:03:27.225Z,29.02
2022-08-25T09:05:57.579Z,29.15
2022-08-25T09:08:24.019Z,29.20
2022-08-25T09:11:31.026Z,29.30
2022-08-25T09:14:16.254Z,29.54
2022-08-25T09:16:54.818Z,29.63
2022-08-25T09:20:02.953Z,29.85
2022-08-25T09:23:03.126Z,29.87
2022-08-25T09:25:56.242Z,30.02
2022-08-25T09:28:36.471Z,30.06
2022-08-25T09:31:12.516Z,30.21
2022-08-25T09:33:39.251Z,30.25
2022-08-25T09:36:08.843Z,30.34
2022-08-25T09:38:36.267Z,30.52
2022-08-25T09:41:03.781Z,30.60
2022-08-25T09:43:33.068Z,30.71
2022-08-25T09:46:23.220Z,30.90
2022-08-25T09:48:59.273Z,31.01
2022-08-25T09:51:42.479Z,31.19
2022-08-25T09:54:12.663Z,31.30
2022-08-25T09:56:49.901Z,31.40
2022-08-25T09:59:34.427Z,31.54
2022-08-25T10:02:23.824Z,31.63
2022-08-25T10:04:50.724Z,31.71
2022-08-25T10:07:27.552Z,31.82
2022-08-25T10:09:57.380Z,31.83
2022-08-25T10:12:37.259Z,31.98
2022-08-25T10:15:29.073Z,32.01
2022-08-25T10:17:56.576Z,32.18
2022-08-25T10:20:27.165Z,32.27
2022-08-25T10:23:13.025Z,32.34
2022-08-25T10:26:00.411Z,32.49
2022-08-25T10:28:41.352Z,32.48
2022-08-25T10:31:22.338Z,32.56
2022-08-25T10:33:52.392Z,32.56
2022-08-25T10:36:23.344Z,32.77
2022-08-25T10:39:01.855Z,32.84
2022-08-25T10:41:43.864Z,32.84
2022-08-25T10:44:52.730Z,32.91
2022-08-25T10:47:39.253Z,32.95
2022-08-25T10:50:08.353Z,33.09
2022-08-25T10:52:39.271Z,33.13
2022-08-25T10:55:25.951Z,33.09
2022-08-25T10:58:23.261Z,32.95
2022-08-25T11:01:18.667Z,32.99
2022-08-25T11:03:59.674Z,33.13
2022-08-25T11:06:40.543Z,33.09
2022-08-25T11:09:12.895Z,32.84
2022-08-25T11:11:46.290Z,32.76
2022-08-25T11:14:35.420Z,32.70
2022-08-25T11:17:09.731Z,32.69
2022-08-25T11:19:49.002Z,32.71
2022-08-25T11:22:36.936Z,32.70
2022-08-25T11:25:25.827Z,32.77
2022-08-25T11:28:06.216Z,32.80
2022-08-25T11:30:33.175Z,32.80
2022-08-25T11:33:00.062Z,32.82
2022-08-25T11:35:58.868Z,32.95
2022-08-25T11:39:00.956Z,33.04
2022-08-25T11:41:38.078Z,32.98
2022-08-25T11:44:53.251Z,32.94
2022-08-25T11:47:38.417Z,32.79
2022-08-25T11:50:25.873Z,32.82
2022-08-25T11:53:02.234Z,33.01
2022-08-25T11:55:34.847Z,33.21
2022-08-25T11:58:40.590Z,33.23
2022-08-25T12:01:43.071Z,33.04
2022-08-25T12:04:44.406Z,32.95
2022-08-25T12:07:14.870Z,32.82
2022-08-25T12:09:50.831Z,32.67
2022-08-25T12:12:56.484Z,32.55
2022-08-25T12:15:32.157Z,32.45
2022-08-25T12:18:15.442Z,32.27
2022-08-25T12:20:54.780Z,32.11
2022-08-25T12:24:02.833Z,32.05
2022-08-25T12:26:40.303Z,32.04
2022-08-25T12:29:25.006Z,32.07
2022-08-25T12:31:57.452Z,32.13
2022-08-25T12:34:44.239Z,32.40
2022-08-25T12:37:16.425Z,32.53
2022-08-25T12:40:06.464Z,32.58
2022-08-25T12:42:40.765Z,32.59
2022-08-25T12:45:34.380Z,32.61
2022-08-25T12:48:25.992Z,32.58
2022-08-25T12:50:57.661Z,32.61
2022-08-25T12:53:40.368Z,32.69
2022-08-25T12:56:31.351Z,32.77
2022-08-25T12:59:18.647Z,32.72
2022-08-25T13:02:10.056Z,32.57
2022-08-25T13:04:55.048Z,32.42
2022-08-25T13:07:21.506Z,32.39
2022-08-25T13:10:07.452Z,32.47
2022-08-25T13:12:46.605Z,32.50
2022-08-25T13:15:15.974Z,32.43
2022-08-25T13:17:42.827Z,32.43
2022-08-25T13:20:15.282Z,32.33
2022-08-25T13:22:46.863Z,32.28
2022-08-25T13:25:18.554Z,32.28
2022-08-25T13:27:57.476Z,32.33
2022-08-25T13:30:36.550Z,32.26
2022-08-25T13:33:21.798Z,32.16
2022-08-25T13:35:52.377Z,32.17
2022-08-25T13:38:19.437Z,32.18
2022-08-25T13:40:46.018Z,32.15
2022-08-25T13:43:14.170Z,32.06
2022-08-25T13:45:47.219Z,32.06
2022-08-25T13:48:30.817Z,32.01
2022-08-25T13:51:23.665Z,32.01
2022-08-25T13:54:02.728Z,32.00
2022-08-25T13:56:41.830Z,31.92
2022-08-25T13:59:40.104Z,31.92
2022-08-25T14:02:09.168Z,31.88
2022-08-25T14:04:51.572Z,31.82
2022-08-25T14:07:34.036Z,31.85
2022-08-25T14:10:31.161Z,31.79
2022-08-25T14:13:14.462Z,31.77
2022-08-25T14:15:45.046Z,31.71
2022-08-25T14:18:26.889Z,31.76
2022-08-25T14:20:56.029Z,31.79
2022-08-25T14:23:26.926Z,31.77
2022-08-25T14:25:56.396Z,31.82
2022-08-25T14:28:25.979Z,31.78
2022-08-25T14:31:08.779Z,31.82
2022-08-25T14:34:00.925Z,31.74
2022-08-25T14:36:29.795Z,31.65
2022-08-25T14:38:57.519Z,31.60
2022-08-25T14:41:25.371Z,31.60
2022-08-25T14:43:52.548Z,31.50
2022-08-25T14:46:24.653Z,31.50
2022-08-25T14:48:56.555Z,31.40
2022-08-25T14:51:25.725Z,31.39
2022-08-25T14:53:57.314Z,31.38
2022-08-25T14:56:24.096Z,31.28
2022-08-25T14:58:54.438Z,31.14
2022-08-25T15:01:28.445Z,31.01
2022-08-25T15:04:01.696Z,30.83
2022-08-25T15:06:28.540Z,30.70
2022-08-25T15:09:08.244Z,30.57
2022-08-25T15:11:36.452Z,30.40
2022-08-25T15:14:05.383Z,30.34
2022-08-25T15:16:50.751Z,30.33
2022-08-25T15:19:19.824Z,30.21
2022-08-25T15:21:47.777Z,30.29
2022-08-25T15:24:17.504Z,30.29
2022-08-25T15:29:27.272Z,30.24
2022-08-25T15:31:53.939Z,30.07
2022-08-25T15:34:20.566Z,30.01
2022-08-25T15:36:47.670Z,30.01
2022-08-25T15:39:15.072Z,29.97
2022-08-25T15:41:46.093Z,29.86
2022-08-25T15:44:16.031Z,29.78
2022-08-25T15:46:47.083Z,29.67
2022-08-25T15:49:16.279Z,29.57
2022-08-25T15:51:52.224Z,29.56
2022-08-25T15:54:18.696Z,29.63
2022-08-25T15:56:45.832Z,29.71
2022-08-25T15:59:13.463Z,29.77
2022-08-25T16:01:41.302Z,29.80
2022-08-25T16:04:07.851Z,29.84
2022-08-25T16:06:34.351Z,29.85
2022-08-25T16:09:01.760Z,29.89
2022-08-25T16:11:30.433Z,29.91
2022-08-25T16:13:57.514Z,29.85
2022-08-25T16:16:26.854Z,29.91
2022-08-25T16:18:54.190Z,29.92
2022-08-25T16:21:25.956Z,29.95
2022-08-25T16:23:59.733Z,29.97
2022-08-25T16:26:30.776Z,29.99
2022-08-25T16:28:57.624Z,29.98
2022-08-25T16:31:24.589Z,30.00
2022-08-25T16:33:54.678Z,29.96
2022-08-25T16:36:27.087Z,29.89
2022-08-25T16:38:55.390Z,29.83
2022-08-25T16:41:25.312Z,29.78
2022-08-25T16:43:52.797Z,29.75
2022-08-25T16:46:20.987Z,29.73
2022-08-25T16:48:48.621Z,29.73
2022-08-25T16:51:19.287Z,29.71
2022-08-25T16:54:07.523Z,29.72
2022-08-25T16:56:35.691Z,29.66
2022-08-25T16:59:06.233Z,29.59
2022-08-25T17:01:36.357Z,29.52
2022-08-25T17:04:04.514Z,29.52
2022-08-25T17:06:35.659Z,29.51
2022-08-25T17:09:02.247Z,29.49
2022-08-25T17:11:35.074Z,29.34
2022-08-25T17:14:04.520Z,29.28
2022-08-25T17:16:37.826Z,29.23
2022-08-25T17:19:08.070Z,29.18
2022-08-25T17:21:45.119Z,29.15
2022-08-25T17:24:13.247Z,29.10
2022-08-25T17:26:45.963Z,29.04
2022-08-25T17:29:12.742Z,28.98
2022-08-25T17:31:39.988Z,28.93
2022-08-25T17:34:12.836Z,28.90
2022-08-25T17:36:43.483Z,28.83
2022-08-25T17:39:12.357Z,28.77
2022-08-25T17:41:39.653Z,28.70
2022-08-25T17:44:07.284Z,28.61
2022-08-25T17:46:33.907Z,28.52
2022-08-25T17:49:00.566Z,28.43
2022-08-25T17:51:29.703Z,28.30
2022-08-25T17:53:59.072Z,28.19
2022-08-25T17:56:27.225Z,28.11
2022-08-25T17:58:55.880Z,28.05
2022-08-25T18:01:28.302Z,27.98
2022-08-25T18:03:56.152Z,27.91
2022-08-25T18:06:23.785Z,27.83
2022-08-25T18:08:52.176Z,27.75
2022-08-25T18:11:21.554Z,27.67
2022-08-25T18:13:48.019Z,27.63
2022-08-25T18:16:17.215Z,27.59
2022-08-25T18:18:44.501Z,27.47
2022-08-25T18:21:13.568Z,27.43
2022-08-25T18:23:41.733Z,27.36
2022-08-25T18:26:08.918Z,27.27
2022-08-25T18:28:39.530Z,27.17
2022-08-25T18:31:06.499Z,27.07
2022-08-25T18:33:34.124Z,27.01
2022-08-25T18:36:02.068Z,26.94
2022-08-25T18:38:47.458Z,26.82
2022-08-25T18:41:13.947Z,26.73
2022-08-25T18:43:40.696Z,26.66
2022-08-25T18:46:08.270Z,26.57
2022-08-25T18:48:36.883Z,26.48
2022-08-25T18:51:04.583Z,26.40
2022-08-25T18:53:37.483Z,26.31
2022-08-25T18:56:16.452Z,26.26
2022-08-25T18:58:42.900Z,26.17
2022-08-25T19:01:14.362Z,26.08
2022-08-25T19:03:43.023Z,26.04
2022-08-25T19:06:09.814Z,25.89
2022-08-25T19:08:39.388Z,25.81
2022-08-25T19:11:08.539Z,25.74
2022-08-25T19:13:35.112Z,25.67
2022-08-25T19:16:34.176Z,25.59
2022-08-25T19:19:01.395Z,25.40
2022-08-25T19:21:30.133Z,25.29
2022-08-25T19:23:56.584Z,25.15
2022-08-25T19:26:23.536Z,25.07
2022-08-25T19:28:52.638Z,25.00
2022-08-25T19:31:24.592Z,24.96
2022-08-25T19:33:53.160Z,24.86
2022-08-25T19:36:27.943Z,24.78
2022-08-25T19:38:58.178Z,24.64
2022-08-25T19:41:25.067Z,24.54
2022-08-25T19:43:56.402Z,24.46
2022-08-25T19:46:33.120Z,24.38
2022-08-25T19:49:09.540Z,24.28
2022-08-25T19:51:38.236Z,24.21
2022-08-25T19:54:06.857Z,24.11
2022-08-25T19:56:36.259Z,24.01
2022-08-25T19:59:03.657Z,23.91
2022-08-25T20:01:30.167Z,23.80
2022-08-25T20:03:56.958Z,23.72
2022-08-25T20:06:24.205Z,23.68
2022-08-25T20:08:58.809Z,23.64
2022-08-25T20:11:28.748Z,23.53
2022-08-25T20:13:58.281Z,23.47
2022-08-25T20:16:28.270Z,23.39
2022-08-25T20:18:55.035Z,23.35
2022-08-25T20:21:21.590Z,23.31
2022-08-25T20:24:07.470Z,23.24
2022-08-25T20:26:36.529Z,23.15
2022-08-25T20:29:05.154Z,23.07
2022-08-25T20:31:32.440Z,23.01
2022-08-25T20:34:00.992Z,22.95
2022-08-25T20:36:30.016Z,22.89
2022-08-25T20:38:59.158Z,22.81
2022-08-25T20:41:25.771Z,22.67
2022-08-25T20:43:52.345Z,22.61
2022-08-25T20:46:19.074Z,22.55
2022-08-25T20:48:45.601Z,22.44
2022-08-25T20:51:12.921Z,22.35
2022-08-25T20:53:42.324Z,22.33
2022-08-25T20:56:19.200Z,22.26
2022-08-25T20:58:46.384Z,22.19
2022-08-25T21:01:23.187Z,22.12
2022-08-25T21:03:50.588Z,22.03
2022-08-25T21:06:17.695Z,21.96
2022-08-25T21:08:46.792Z,21.89
2022-08-25T21:11:15.428Z,21.84
2022-08-25T21:13:42.033Z,21.77
2022-08-25T21:16:08.981Z,21.75
2022-08-25T21:18:36.233Z,21.69
2022-08-25T21:21:12.246Z,21.62
2022-08-25T21:23:40.038Z,21.62
2022-08-25T21:26:13.696Z,21.60
2022-08-25T21:28:40.155Z,21.56
2022-08-25T21:31:15.211Z,21.49
2022-08-25T21:33:42.758Z,21.45
2022-08-25T21:36:11.369Z,21.43
2022-08-25T21:38:39.984Z,21.38
2022-08-25T21:41:15.439Z,21.29
2022-08-25T21:43:42.475Z,21.25
2022-08-25T21:46:13.418Z,21.20
2022-08-25T21:48:40.145Z,21.13
2022-08-25T21:51:13.532Z,21.12
2022-08-25T21:53:40.459Z,21.09
2022-08-25T21:56:17.266Z,21.08
2022-08-25T21:58:46.484Z,21.03
2022-08-25T22:01:19.868Z,20.98
2022-08-25T22:03:47.367Z,20.91
2022-08-25T22:06:14.883Z,20.88
2022-08-25T22:08:43.192Z,20.85
2022-08-25T22:11:10.709Z,20.81
2022-08-25T22:13:37.983Z,20.78
2022-08-25T22:16:07.756Z,20.77
2022-08-25T22:18:34.738Z,20.73
2022-08-25T22:21:01.529Z,20.70
2022-08-25T22:23:44.100Z,20.70
2022-08-25T22:26:12.027Z,20.68
2022-08-25T22:28:39.171Z,20.67
2022-08-25T22:31:10.373Z,20.66
2022-08-25T22:33:37.130Z,20.63
2022-08-25T22:36:28.475Z,20.60
2022-08-25T22:38:55.699Z,20.60
2022-08-25T22:41:23.629Z,20.58
2022-08-25T22:43:53.017Z,20.55
2022-08-25T22:46:21.540Z,20.52
2022-08-25T22:48:50.377Z,20.51
2022-08-25T22:51:27.043Z,20.50
2022-08-25T22:53:54.629Z,20.50
2022-08-25T22:56:29.736Z,20.49
2022-08-25T22:59:02.544Z,20.46
2022-08-25T23:01:29.591Z,20.45
2022-08-25T23:03:56.050Z,20.44
2022-08-25T23:06:25.012Z,20.41
2022-08-25T23:08:53.591Z,20.40
2022-08-25T23:11:22.246Z,20.37
2022-08-25T23:13:49.596Z,20.37
2022-08-25T23:16:17.089Z,20.37
2022-08-25T23:18:44.858Z,20.36
2022-08-25T23:21:35.061Z,20.35
2022-08-25T23:24:05.408Z,20.31
2022-08-25T23:26:36.271Z,20.28
2022-08-25T23:29:07.803Z,20.27
2022-08-25T23:31:44.650Z,20.24
2022-08-25T23:34:11.448Z,20.21
2022-08-25T23:36:39.805Z,20.20
2022-08-25T23:39:07.009Z,20.19
2022-08-25T23:41:34.787Z,20.17
2022-08-25T23:44:05.199Z,20.17
2022-08-25T23:46:34.752Z,20.18
2022-08-25T23:49:03.029Z,20.16
2022-08-25T23:51:37.161Z,20.17
2022-08-25T23:54:07.010Z,20.17
2022-08-25T23:56:36.771Z,20.17
2022-08-25T23:59:10.590Z,20.16
